Aeroporto :
LOGIN :

Iscrizione | Disclaimer

   EN    FR    IT 

 










Sommario :    VFR   VFR Marginale   IFR   IFR Intensivo   IFR Molto Intensivo
Visibilità : 
Base nubi : 
>= 8 km
>= 3000ft
5 / 8 km
1000 / 3000 ft
1500m / 5 km
500 / 1000 ft
800 / 1500m
200 / 500 ft
< 800m
< 200 ft
Simboli :   Temporali  Nebbia  Neve Forte  Precipitazioni Forti  Vento > 20 kt
SIGMETs :   Varie  Temporali  Ghiacco  Turbolenza  Onda orograficha  Ceneri Vulcaniche






- Altitudine del aeroporto : 121 ft
- Codice IATA : HUY


EGNJ - Humberside

ULTIMO METAR :
  • 061050Z 21017KT 9999 SCT008 BKN012 12/11 Q0997

METARs OBSOLETI :
  • 061020Z 21018KT 9999 BKN010 12/11 Q0998
  • 060950Z 21016KT 9999 BKN010 12/11 Q0998
  • 060920Z 21018KT 9000 BKN008 12/11 Q0998
  • 060850Z 21018KT 9000 BKN008 11/11 Q0999
  • 060820Z 21018KT 9000 BKN007 11/10 Q0999
  • 060750Z 21019KT 9000 BKN009 11/10 Q0999

TAF TAF EGNJ
Valido dal 06 a 09 ore il 06 a 18 ore UTC


060759Z 0609/0618 21014KT 9999 BKN020
TEMPO 0609/0611 8000 -RA BKN012
PROB30
TEMPO 0609/0612 22017G27KT BKN006
TEMPO 0611/0617 7000 SHRA
PROB30
TEMPO 0612/0616 26020G30KT 4000 +SHRA BKN014
BECMG 0616/0618 27009KT
ATIS : +44 1652 682 020



MetMap, La meteo Aeronautica in un colpo d'occhio ! - Copyright ORBIFLY Dicembre 2007 - Disclaimer

ORBIFLY MET'MAP TEAM :

Programmazione e sviluppo : Alexandra Zaïnal
Concezione : Baudouin d'Aumeries
Aiuto per la programmazione : Marc-Olivier Méhu
Supporto tecnico e logistico : Manuel Goepfert
Aiuto per la traduzione : Arnaldo La Scala

Contatto : metmap@orbifly.com




FONTI E CREDITI :

   NOAA